Time;durP1;ratioP1;P1;durP2;ratioP2;P2;SDS_P1;SDS_P2;PMS_P1;PMS_P2;Temp;Humidity;BMP_temperature;BMP_pressure;BME280_temperature;BME280_humidity;BME280_pressure;Samples;Min_cycle;Max_cycle;Signal;HPM_P1;HPM_P2
2023/07/23 00:02:20;;;;;;;3.38;2.22;;;20.70;82.10;;;;;;5033858;28;20116;-79
2023/07/23 00:04:46;;;;;;;5.40;2.80;;;20.60;82.50;;;;;;5017279;28;20062;-77
2023/07/23 00:07:12;;;;;;;5.50;2.60;;;20.60;83.30;;;;;;5034048;28;20059;-78
2023/07/23 00:09:37;;;;;;;4.82;2.45;;;20.60;82.90;;;;;;5017215;28;20096;-77
2023/07/23 00:12:03;;;;;;;5.00;2.17;;;20.60;83.30;;;;;;5017212;28;20028;-79
2023/07/23 00:14:29;;;;;;;6.22;2.58;;;20.60;83.30;;;;;;5016813;28;20132;-79
2023/07/23 00:16:54;;;;;;;4.30;2.30;;;20.60;83.40;;;;;;5017168;28;20045;-77
2023/07/23 00:19:20;;;;;;;4.75;2.20;;;20.60;83.20;;;;;;5016545;28;20025;-77
2023/07/23 00:21:49;;;;;;;5.18;2.65;;;20.60;83.50;;;;;;5017106;28;20029;-79
2023/07/23 00:24:19;;;;;;;3.72;2.60;;;20.60;83.50;;;;;;5016820;28;20025;-79
2023/07/23 00:26:45;;;;;;;5.53;2.33;;;20.60;83.50;;;;;;5017465;28;20076;-80
2023/07/23 00:29:11;;;;;;;5.18;2.58;;;20.60;83.80;;;;;;5016968;28;20029;-79
2023/07/23 00:31:37;;;;;;;4.40;2.30;;;20.60;83.90;;;;;;5034518;28;20057;-81
2023/07/23 00:34:05;;;;;;;4.65;2.17;;;20.60;84.10;;;;;;5017940;28;20034;-81
2023/07/23 00:36:31;;;;;;;4.28;2.17;;;20.60;84.20;;;;;;5034749;28;20068;-81
2023/07/23 00:38:56;;;;;;;4.80;2.22;;;20.50;84.70;;;;;;5035546;28;20025;-80
2023/07/23 00:41:22;;;;;;;8.23;2.20;;;20.50;84.90;;;;;;5016603;28;20033;-80
2023/07/23 00:43:48;;;;;;;5.90;2.15;;;20.50;85.30;;;;;;5035417;28;20029;-80
2023/07/23 00:46:13;;;;;;;3.85;2.25;;;20.40;85.40;;;;;;5017141;28;20036;-80
2023/07/23 00:48:39;;;;;;;2.65;1.92;;;20.40;86.00;;;;;;5017535;28;20060;-80
2023/07/23 00:51:05;;;;;;;2.88;1.90;;;20.40;85.60;;;;;;5034907;28;20100;-81
2023/07/23 00:53:30;;;;;;;9.25;2.10;;;20.40;85.40;;;;;;5017470;28;20610;-81
2023/07/23 00:55:58;;;;;;;5.50;1.90;;;20.40;85.60;;;;;;5034904;28;20029;-80
2023/07/23 00:58:24;;;;;;;2.92;1.90;;;20.40;85.50;;;;;;5034050;28;20049;-83
2023/07/23 01:00:50;;;;;;;3.40;2.10;;;20.40;86.20;;;;;;5017209;28;20033;-80
2023/07/23 01:03:16;;;;;;;3.00;1.88;;;20.40;85.60;;;;;;5016554;28;20037;-81
2023/07/23 01:05:44;;;;;;;5.85;2.20;;;20.30;85.60;;;;;;5016622;28;20462;-80
2023/07/23 01:08:11;;;;;;;3.28;2.13;;;20.40;85.80;;;;;;5017400;28;20061;-81
2023/07/23 01:10:36;;;;;;;3.70;2.05;;;20.30;86.00;;;;;;5016590;28;20025;-80
2023/07/23 01:13:03;;;;;;;5.07;1.80;;;20.30;86.30;;;;;;5034432;28;20029;-79
2023/07/23 01:15:30;;;;;;;2.55;1.70;;;20.20;86.60;;;;;;5036243;28;20025;-78
2023/07/23 01:17:57;;;;;;;3.13;1.90;;;20.20;86.90;;;;;;5036671;28;20068;-79
2023/07/23 01:20:23;;;;;;;2.50;1.70;;;20.20;86.70;;;;;;5035865;28;20481;-77
2023/07/23 01:22:48;;;;;;;4.18;1.85;;;20.20;87.00;;;;;;5036636;28;20052;-79
2023/07/23 01:25:14;;;;;;;2.58;1.58;;;20.20;87.20;;;;;;5053878;28;20032;-78
2023/07/23 01:27:40;;;;;;;4.32;1.70;;;20.20;87.60;;;;;;5036489;28;20039;-79
2023/07/23 01:30:10;;;;;;;3.88;1.75;;;20.10;87.80;;;;;;5036070;28;20036;-79
2023/07/23 01:32:36;;;;;;;3.85;1.73;;;20.10;87.90;;;;;;5036245;28;20608;-79
2023/07/23 01:35:08;;;;;;;3.53;1.88;;;20.10;88.20;;;;;;5036439;28;20029;-79
2023/07/23 01:37:34;;;;;;;;;;;20.20;88.30;;;;;;5036747;28;20135;-79
2023/07/23 01:39:59;;;;;;;3.17;1.88;;;20.20;88.40;;;;;;5036504;28;19912;-80
2023/07/23 01:42:25;;;;;;;5.70;2.10;;;20.20;88.80;;;;;;5036013;28;20470;-79
2023/07/23 01:44:51;;;;;;;3.60;1.85;;;20.10;89.00;;;;;;5036450;28;20021;-79
2023/07/23 01:47:16;;;;;;;3.33;1.83;;;20.10;88.90;;;;;;5053563;28;20028;-78
2023/07/23 01:49:42;;;;;;;4.30;1.88;;;20.10;89.20;;;;;;5054030;28;20031;-81
2023/07/23 01:52:07;;;;;;;5.90;1.70;;;20.10;89.40;;;;;;5036361;28;20033;-81
2023/07/23 01:54:33;;;;;;;2.35;1.77;;;20.10;89.60;;;;;;5035595;28;20119;-81
2023/07/23 01:56:59;;;;;;;4.43;1.70;;;20.10;89.70;;;;;;5054157;28;20029;-80
2023/07/23 01:59:24;;;;;;;5.55;1.98;;;20.10;89.90;;;;;;5035432;28;20032;-80
2023/07/23 02:01:50;;;;;;;3.95;2.03;;;20.10;90.10;;;;;;5036244;28;20561;-80
2023/07/23 02:04:15;;;;;;;4.47;2.10;;;20.00;90.20;;;;;;5035493;28;20029;-78
2023/07/23 02:06:41;;;;;;;3.00;1.80;;;20.00;90.20;;;;;;5035802;28;20454;-80
2023/07/23 02:09:07;;;;;;;5.25;1.90;;;20.00;90.40;;;;;;5035746;28;20033;-80
2023/07/23 02:11:32;;;;;;;4.20;2.00;;;19.90;90.50;;;;;;5053409;28;20029;-81
2023/07/23 02:13:58;;;;;;;3.22;1.65;;;19.90;90.60;;;;;;5053331;28;20021;-81
2023/07/23 02:16:23;;;;;;;2.40;1.77;;;19.90;90.80;;;;;;5052906;28;20033;-80
2023/07/23 02:18:49;;;;;;;2.75;1.58;;;19.90;90.90;;;;;;5036142;28;20102;-80
2023/07/23 02:21:15;;;;;;;3.08;1.63;;;19.90;90.90;;;;;;5036007;28;20033;-79
2023/07/23 02:23:41;;;;;;;4.03;1.80;;;19.90;91.00;;;;;;5035416;28;20021;-80
2023/07/23 02:26:07;;;;;;;2.85;2.05;;;19.90;91.10;;;;;;5036255;28;20470;-80
2023/07/23 02:28:32;;;;;;;2.67;1.60;;;19.90;91.10;;;;;;5035351;28;20117;-80
2023/07/23 02:30:59;;;;;;;4.22;2.35;;;19.90;91.40;;;;;;5036128;28;20057;-80
2023/07/23 02:33:26;;;;;;;3.30;1.98;;;19.80;91.50;;;;;;5034996;28;20033;-79
2023/07/23 02:35:52;;;;;;;3.47;1.77;;;19.80;91.60;;;;;;5036045;28;20025;-79
2023/07/23 02:38:17;;;;;;;3.70;2.30;;;19.70;91.80;;;;;;5035460;28;20032;-79
2023/07/23 02:40:43;;;;;;;2.67;1.70;;;19.80;91.80;;;;;;5052643;28;20354;-78
2023/07/23 02:43:12;;;;;;;3.47;1.48;;;19.70;92.00;;;;;;5055510;28;20033;-78
2023/07/23 02:45:38;;;;;;;2.90;1.70;;;19.70;92.10;;;;;;5056433;28;20309;-78
2023/07/23 02:48:03;;;;;;;3.42;1.80;;;19.70;92.30;;;;;;5039545;28;20029;-80
2023/07/23 02:50:29;;;;;;;4.32;1.90;;;19.70;92.40;;;;;;5039134;28;20035;-80
2023/07/23 02:52:54;;;;;;;2.42;1.60;;;19.70;92.60;;;;;;5057215;28;20147;-81
2023/07/23 02:55:22;;;;;;;3.00;1.80;;;19.70;92.70;;;;;;5056570;28;20028;-80
2023/07/23 02:57:49;;;;;;;4.85;2.17;;;19.70;92.90;;;;;;5057050;28;20031;-79
2023/07/23 03:00:15;;;;;;;4.43;1.90;;;19.70;93.00;;;;;;5056963;28;20025;-77
2023/07/23 03:02:41;;;;;;;3.22;1.65;;;19.70;93.20;;;;;;5038696;28;20023;-78
2023/07/23 03:05:07;;;;;;;4.35;1.90;;;19.70;93.30;;;;;;5039255;28;20147;-77
2023/07/23 03:07:34;;;;;;;2.70;1.70;;;19.60;93.60;;;;;;5056237;28;20075;-77
2023/07/23 03:10:00;;;;;;;2.22;1.67;;;19.60;93.80;;;;;;5039473;28;20032;-77
2023/07/23 03:12:25;;;;;;;5.25;1.88;;;19.60;94.00;;;;;;5038748;28;20461;-78
2023/07/23 03:14:53;;;;;;;3.58;1.83;;;19.60;94.20;;;;;;5056090;28;20096;-78
2023/07/23 03:17:18;;;;;;;3.13;1.90;;;19.50;94.50;;;;;;5038508;28;20025;-78
2023/07/23 03:19:44;;;;;;;3.70;1.83;;;19.50;94.70;;;;;;5038483;28;20111;-78
2023/07/23 03:22:09;;;;;;;4.05;2.20;;;19.50;94.90;;;;;;5038524;28;20040;-78
2023/07/23 03:24:35;;;;;;;4.50;1.83;;;19.40;95.10;;;;;;5037838;28;20082;-78
2023/07/23 03:27:00;;;;;;;4.65;1.70;;;19.40;95.40;;;;;;5038288;28;20029;-78
2023/07/23 03:29:26;;;;;;;2.88;1.90;;;19.40;95.50;;;;;;5038284;28;20032;-78
2023/07/23 03:31:51;;;;;;;2.38;1.90;;;19.30;95.70;;;;;;5038707;28;20119;-78
2023/07/23 03:34:17;;;;;;;3.38;1.60;;;19.30;95.90;;;;;;5056451;28;20370;-78
2023/07/23 03:36:43;;;;;;;3.95;2.08;;;19.30;96.10;;;;;;5037981;28;20025;-78
2023/07/23 03:39:08;;;;;;;3.28;2.00;;;19.30;96.20;;;;;;5038173;28;20457;-78
2023/07/23 03:41:34;;;;;;;3.13;2.10;;;19.30;96.50;;;;;;5037790;28;20083;-78
2023/07/23 03:44:00;;;;;;;5.28;1.98;;;19.30;96.50;;;;;;5037351;28;20022;-78
2023/07/23 03:46:25;;;;;;;3.40;1.75;;;19.30;96.60;;;;;;5033304;28;20025;-77
2023/07/23 03:48:51;;;;;;;3.47;2.00;;;19.20;97.00;;;;;;5018046;28;20021;-78
2023/07/23 03:51:19;;;;;;;6.05;2.15;;;19.20;97.50;;;;;;5018443;28;20033;-79
2023/07/23 03:53:44;;;;;;;5.18;2.38;;;19.10;97.30;;;;;;5016920;28;20091;-78
2023/07/23 03:56:10;;;;;;;5.10;2.00;;;19.20;97.50;;;;;;5017781;28;20033;-79
2023/07/23 03:58:36;;;;;;;2.15;1.60;;;19.10;97.70;;;;;;5017636;28;20033;-78
2023/07/23 04:01:01;;;;;;;3.88;1.67;;;19.10;97.90;;;;;;5018416;28;20048;-78
2023/07/23 04:03:27;;;;;;;2.92;1.70;;;19.10;98.00;;;;;;5025091;28;20068;-78
2023/07/23 04:05:52;;;;;;;3.80;1.73;;;19.10;98.10;;;;;;5017697;28;20395;-78
2023/07/23 04:08:18;;;;;;;3.92;1.63;;;19.10;98.20;;;;;;5017677;28;20053;-80
2023/07/23 04:10:43;;;;;;;2.83;1.70;;;19.10;98.30;;;;;;5017013;28;20075;-78
2023/07/23 04:13:09;;;;;;;2.30;1.80;;;19.10;98.40;;;;;;5017277;28;20025;-78
2023/07/23 04:15:38;;;;;;;4.35;1.90;;;19.10;98.50;;;;;;5033987;28;20037;-80
2023/07/23 04:18:13;;;;;;;5.10;1.98;;;19.10;98.50;;;;;;5034930;28;20022;-80
2023/07/23 04:20:39;;;;;;;3.58;1.85;;;19.10;98.70;;;;;;5016669;28;20038;-80
2023/07/23 04:23:05;;;;;;;3.58;1.92;;;19.00;98.80;;;;;;5034459;28;20057;-79
2023/07/23 04:25:31;;;;;;;3.58;1.80;;;19.10;98.80;;;;;;5033828;28;20072;-80
2023/07/23 04:27:57;;;;;;;2.25;1.67;;;19.10;98.60;;;;;;5017538;28;20033;-80
2023/07/23 04:30:26;;;;;;;2.70;1.70;;;19.10;98.50;;;;;;5017413;28;20021;-79
2023/07/23 04:32:52;;;;;;;4.53;1.42;;;19.10;98.40;;;;;;5017684;28;20032;-79
2023/07/23 04:35:18;;;;;;;2.67;1.70;;;19.10;98.40;;;;;;5017158;28;20037;-78
2023/07/23 04:37:43;;;;;;;5.25;1.48;;;19.10;98.40;;;;;;5034950;28;20021;-78
2023/07/23 04:40:09;;;;;;;3.60;2.22;;;19.10;98.50;;;;;;5017519;28;20030;-78
2023/07/23 04:42:35;;;;;;;2.63;1.80;;;19.10;98.60;;;;;;5016738;28;20132;-81
2023/07/23 04:45:00;;;;;;;2.17;1.50;;;19.10;98.70;;;;;;5017451;28;20056;-80
2023/07/23 04:47:26;;;;;;;2.83;1.85;;;19.10;98.60;;;;;;5017186;28;20026;-80
2023/07/23 04:49:51;;;;;;;2.80;1.60;;;19.10;98.60;;;;;;5017463;28;20634;-81
2023/07/23 04:52:18;;;;;;;3.50;1.75;;;19.10;98.60;;;;;;5017773;28;20033;-80
2023/07/23 04:54:44;;;;;;;5.97;1.92;;;19.20;98.50;;;;;;5033625;28;20021;-79
2023/07/23 04:57:09;;;;;;;3.55;1.60;;;19.10;98.50;;;;;;5016730;28;20478;-80
2023/07/23 04:59:35;;;;;;;3.78;1.40;;;19.20;98.40;;;;;;5016709;28;20025;-79
2023/07/23 05:02:00;;;;;;;2.65;1.40;;;19.30;98.30;;;;;;5034472;28;20034;-80
2023/07/23 05:04:26;;;;;;;4.03;1.60;;;19.40;98.10;;;;;;5015975;28;20057;-82
2023/07/23 05:06:52;;;;;;;4.47;2.50;;;19.50;98.00;;;;;;5034118;28;20025;-80
2023/07/23 05:09:18;;;;;;;3.33;1.98;;;19.50;97.80;;;;;;5016681;28;20397;-80
2023/07/23 05:11:43;;;;;;;4.00;1.50;;;19.50;97.70;;;;;;5033974;28;20212;-80
2023/07/23 05:14:09;;;;;;;3.35;1.65;;;19.60;97.90;;;;;;5016502;28;20018;-79
2023/07/23 05:16:35;;;;;;;4.38;1.67;;;19.60;97.50;;;;;;5016215;28;20057;-80
2023/07/23 05:19:00;;;;;;;2.58;1.52;;;19.60;97.40;;;;;;5033940;28;20017;-80
2023/07/23 05:21:26;;;;;;;4.20;2.10;;;19.60;97.40;;;;;;5034200;28;20084;-79
2023/07/23 05:23:51;;;;;;;2.65;1.58;;;19.60;97.40;;;;;;5033640;28;20029;-79
2023/07/23 05:26:17;;;;;;;3.55;1.90;;;19.60;97.30;;;;;;5016390;28;20029;-80
2023/07/23 05:28:42;;;;;;;2.45;1.52;;;19.70;97.30;;;;;;5016075;28;20378;-79
2023/07/23 05:31:08;;;;;;;2.78;1.40;;;19.70;97.40;;;;;;5016956;28;20053;-79
2023/07/23 05:33:33;;;;;;;4.80;1.95;;;19.80;97.30;;;;;;5027343;28;20033;-79
2023/07/23 05:35:59;;;;;;;2.15;1.55;;;19.80;97.30;;;;;;5033715;28;20112;-79
2023/07/23 05:38:26;;;;;;;4.45;1.83;;;19.80;97.30;;;;;;5033271;28;20451;-79
2023/07/23 05:40:56;;;;;;;4.20;1.30;;;19.90;97.20;;;;;;5015863;28;20121;-78
2023/07/23 05:43:22;;;;;;;3.20;1.77;;;19.90;97.20;;;;;;5033712;28;20474;-78
2023/07/23 05:45:48;;;;;;;2.55;1.33;;;19.90;97.10;;;;;;5015632;28;20025;-78
2023/07/23 05:48:14;;;;;;;4.55;1.73;;;20.00;97.00;;;;;;5033387;28;20029;-77
2023/07/23 05:50:39;;;;;;;3.22;1.83;;;20.00;96.90;;;;;;5015734;28;20026;-77
2023/07/23 05:53:05;;;;;;;3.65;1.75;;;19.90;97.00;;;;;;5033436;28;20390;-79
2023/07/23 05:55:30;;;;;;;4.18;1.70;;;20.00;97.00;;;;;;5015166;28;20021;-78
2023/07/23 05:57:56;;;;;;;4.03;1.85;;;20.00;96.80;;;;;;5032801;28;20478;-78
2023/07/23 06:00:21;;;;;;;6.35;2.17;;;20.00;96.60;;;;;;5016123;28;20022;-78
2023/07/23 06:02:47;;;;;;;3.08;1.60;;;20.10;96.50;;;;;;5033012;28;20500;-77
2023/07/23 06:05:13;;;;;;;4.30;1.73;;;20.10;96.40;;;;;;5015724;28;20052;-78
2023/07/23 06:07:38;;;;;;;4.60;1.80;;;20.10;96.20;;;;;;5015677;28;20029;-78
2023/07/23 06:10:04;;;;;;;1.92;1.42;;;20.10;96.20;;;;;;5015210;28;20029;-78
2023/07/23 06:12:30;;;;;;;3.35;1.60;;;20.20;96.20;;;;;;5010843;28;20025;-77
2023/07/23 06:14:55;;;;;;;4.93;1.75;;;20.20;96.00;;;;;;5033727;28;20048;-78
2023/07/23 06:17:21;;;;;;;4.80;1.70;;;20.20;96.00;;;;;;5018742;28;20466;-78
2023/07/23 06:19:47;;;;;;;3.88;1.90;;;20.20;95.90;;;;;;5032441;28;20175;-78
2023/07/23 06:22:13;;;;;;;3.72;1.75;;;20.20;96.00;;;;;;5018398;28;20037;-79
2023/07/23 06:24:38;;;;;;;6.10;1.90;;;20.20;96.00;;;;;;5036434;28;20040;-77
2023/07/23 06:27:04;;;;;;;2.67;1.65;;;20.10;96.00;;;;;;5019987;28;20040;-78
2023/07/23 06:29:30;;;;;;;3.15;1.70;;;20.10;96.00;;;;;;5036887;28;20066;-77
2023/07/23 06:31:56;;;;;;;4.93;1.55;;;20.10;95.90;;;;;;5019808;28;20029;-79
2023/07/23 06:34:22;;;;;;;3.88;1.42;;;20.10;95.90;;;;;;5019627;28;20083;-78
2023/07/23 06:36:47;;;;;;;3.78;1.90;;;20.10;95.90;;;;;;5019284;28;20033;-78
2023/07/23 06:39:13;;;;;;;3.47;1.90;;;20.10;95.80;;;;;;5019685;28;20477;-80
2023/07/23 06:41:39;;;;;;;2.75;1.90;;;20.20;95.70;;;;;;5036439;28;20037;-79
2023/07/23 06:44:05;;;;;;;1.75;1.40;;;20.30;95.60;;;;;;5019070;28;20048;-79
2023/07/23 06:46:31;;;;;;;2.70;1.63;;;20.40;95.60;;;;;;5019152;28;20463;-80
2023/07/23 06:48:56;;;;;;;4.47;1.70;;;20.40;95.70;;;;;;5014257;28;20022;-78
2023/07/23 06:51:22;;;;;;;4.75;1.83;;;20.40;95.70;;;;;;5019684;28;20057;-78
2023/07/23 06:53:48;;;;;;;3.17;1.50;;;20.40;95.90;;;;;;5018547;28;20021;-77
2023/07/23 06:56:16;;;;;;;3.10;1.55;;;20.50;95.70;;;;;;5036098;28;20088;-79
2023/07/23 06:58:42;;;;;;;2.25;1.50;;;20.50;95.80;;;;;;5035108;28;20029;-78
2023/07/23 07:01:10;;;;;;;3.50;1.55;;;20.50;95.80;;;;;;5036355;28;20033;-80
2023/07/23 07:03:36;;;;;;;2.78;1.70;;;20.40;95.90;;;;;;5018072;28;20474;-79
2023/07/23 07:06:03;;;;;;;5.32;1.90;;;20.40;95.80;;;;;;5021456;28;20129;-79
2023/07/23 07:08:29;;;;;;;4.18;1.50;;;20.40;95.80;;;;;;5016264;28;20030;-79
2023/07/23 07:10:59;;;;;;;3.38;1.60;;;20.40;95.90;;;;;;5014634;28;20029;-77
2023/07/23 07:13:25;;;;;;;2.38;1.48;;;20.40;95.80;;;;;;5006863;28;20033;-77
2023/07/23 07:15:51;;;;;;;1.90;1.23;;;20.40;95.80;;;;;;5017041;28;20083;-77
2023/07/23 07:18:17;;;;;;;3.20;1.65;;;20.40;95.90;;;;;;4999241;28;20030;-77
2023/07/23 07:20:42;;;;;;;4.00;1.73;;;20.30;96.00;;;;;;5004688;28;20048;-78
2023/07/23 07:23:08;;;;;;;2.78;1.70;;;20.30;95.90;;;;;;5018934;28;20573;-79
2023/07/23 07:25:33;;;;;;;1.67;1.25;;;20.40;96.00;;;;;;5018419;28;20025;-77
2023/07/23 07:27:59;;;;;;;2.60;1.45;;;20.50;95.90;;;;;;5035423;28;20033;-79
2023/07/23 07:30:24;;;;;;;3.70;1.48;;;20.50;95.80;;;;;;5025841;28;20109;-78
2023/07/23 07:32:52;;;;;;;2.33;1.60;;;20.50;95.80;;;;;;4998871;28;20754;-79
2023/07/23 07:35:18;;;;;;;2.58;1.38;;;20.60;95.90;;;;;;5016429;28;20057;-79
2023/07/23 07:37:45;;;;;;;3.88;1.27;;;20.70;95.60;;;;;;4998651;28;20026;-79
2023/07/23 07:40:13;;;;;;;2.97;1.40;;;20.60;95.60;;;;;;5017981;28;20042;-76
2023/07/23 07:42:39;;;;;;;2.25;1.50;;;20.70;95.40;;;;;;5019913;28;20033;-77
2023/07/23 07:45:05;;;;;;;3.63;1.63;;;20.80;95.40;;;;;;5015543;28;20091;-77
2023/07/23 07:47:30;;;;;;;1.98;1.23;;;20.90;95.20;;;;;;4997336;28;20026;-76
2023/07/23 07:49:56;;;;;;;3.47;1.60;;;21.00;94.80;;;;;;5014941;28;20446;-76
2023/07/23 07:52:21;;;;;;;3.28;1.35;;;21.10;94.80;;;;;;5015119;28;20029;-77
2023/07/23 07:54:47;;;;;;;2.92;1.80;;;21.20;94.40;;;;;;4997257;28;20648;-76
2023/07/23 07:57:13;;;;;;;2.10;1.23;;;21.20;94.20;;;;;;5015132;28;20030;-77
2023/07/23 07:59:39;;;;;;;2.60;1.63;;;21.20;94.10;;;;;;5013920;28;20075;-76
2023/07/23 08:02:05;;;;;;;4.68;1.58;;;21.30;94.00;;;;;;5016458;28;20034;-76
2023/07/23 08:04:31;;;;;;;3.08;1.63;;;21.40;94.00;;;;;;5017241;28;20096;-76
2023/07/23 08:06:57;;;;;;;4.60;1.40;;;21.50;94.00;;;;;;5053862;28;20565;-76
2023/07/23 08:09:24;;;;;;;2.67;1.35;;;21.60;94.00;;;;;;5036761;28;20488;-76
2023/07/23 08:11:50;;;;;;;2.28;1.30;;;21.70;93.80;;;;;;5036763;28;20163;-77
2023/07/23 08:14:19;;;;;;;1.48;1.15;;;21.90;93.90;;;;;;5053712;28;20390;-77
2023/07/23 08:16:44;;;;;;;2.88;1.60;;;22.00;93.60;;;;;;5054234;28;20029;-76
2023/07/23 08:19:10;;;;;;;2.15;1.38;;;22.10;93.40;;;;;;5037176;28;20079;-76
2023/07/23 08:21:36;;;;;;;1.92;1.10;;;22.20;93.10;;;;;;5053677;28;20036;-76
2023/07/23 08:24:02;;;;;;;2.90;1.50;;;22.30;92.80;;;;;;5054281;28;20029;-76
2023/07/23 08:26:32;;;;;;;1.83;1.40;;;22.40;92.40;;;;;;5036734;28;20028;-76
2023/07/23 08:29:02;;;;;;;2.78;1.23;;;22.50;92.20;;;;;;5036615;28;20469;-76
2023/07/23 08:31:28;;;;;;;1.98;1.20;;;22.60;92.00;;;;;;5036050;28;20038;-75
2023/07/23 08:33:55;;;;;;;3.33;1.50;;;22.60;91.90;;;;;;5035625;28;20025;-76
2023/07/23 08:36:21;;;;;;;2.95;1.13;;;22.70;92.00;;;;;;5051321;28;20026;-76
2023/07/23 08:38:47;;;;;;;6.35;1.05;;;22.80;91.90;;;;;;5042056;28;20368;-76
2023/07/23 08:41:31;;;;;;;1.48;1.00;;;22.80;91.80;;;;;;5045587;28;20064;-77
2023/07/23 08:44:16;;;;;;;1.90;1.02;;;22.80;91.90;;;;;;5053895;28;20029;-77
2023/07/23 08:46:46;;;;;;;6.93;1.30;;;22.90;91.90;;;;;;5036038;28;20055;-77
2023/07/23 08:49:12;;;;;;;2.47;1.25;;;22.90;91.90;;;;;;5036380;28;20381;-77
2023/07/23 08:51:44;;;;;;;1.10;1.00;;;23.00;91.80;;;;;;5053865;28;20041;-77
2023/07/23 08:54:11;;;;;;;3.65;1.23;;;23.10;91.50;;;;;;5053784;28;20082;-76
2023/07/23 08:56:39;;;;;;;1.17;0.88;;;23.20;91.20;;;;;;5053590;28;20107;-76
2023/07/23 08:59:06;;;;;;;1.50;0.95;;;23.30;91.10;;;;;;5035668;28;20025;-77
2023/07/23 09:01:34;;;;;;;2.63;0.90;;;23.30;91.00;;;;;;5053335;28;20028;-76
2023/07/23 09:04:01;;;;;;;1.90;1.13;;;23.40;90.80;;;;;;5036095;28;20047;-76
2023/07/23 09:06:30;;;;;;;1.77;1.02;;;23.50;90.80;;;;;;5036588;28;20137;-76
2023/07/23 09:09:08;;;;;;;2.22;1.00;;;23.50;90.50;;;;;;5065292;28;20051;-77
2023/07/23 09:11:35;;;;;;;2.22;1.08;;;23.60;90.80;;;;;;5035448;28;20409;-77
2023/07/23 09:14:03;;;;;;;2.28;1.23;;;23.60;90.10;;;;;;5052966;28;20029;-76
2023/07/23 09:16:28;;;;;;;1.63;1.05;;;23.70;89.80;;;;;;5035550;28;20057;-77
2023/07/23 09:18:54;;;;;;;1.90;1.02;;;23.70;89.70;;;;;;5034237;28;20052;-77
2023/07/23 09:21:24;;;;;;;2.63;1.05;;;23.70;89.60;;;;;;5052615;28;20039;-76
2023/07/23 09:24:02;;;;;;;2.25;1.00;;;23.70;88.90;;;;;;5051912;28;20095;-77
2023/07/23 09:26:28;;;;;;;2.47;1.10;;;23.80;89.00;;;;;;5043636;28;20111;-77
2023/07/23 09:28:59;;;;;;;1.30;0.85;;;23.80;88.50;;;;;;5052757;28;20532;-77
2023/07/23 09:31:30;;;;;;;1.42;0.80;;;23.90;87.60;;;;;;5052955;28;20064;-77
2023/07/23 09:33:58;;;;;;;3.17;1.00;;;24.00;87.00;;;;;;5034690;28;20393;-77
2023/07/23 09:36:25;;;;;;;2.17;0.90;;;24.00;87.20;;;;;;5018728;28;20080;-77
2023/07/23 09:39:03;;;;;;;3.78;0.82;;;24.10;87.50;;;;;;5051750;28;20052;-76
2023/07/23 09:41:38;;;;;;;1.27;1.05;;;24.10;85.60;;;;;;5052193;28;20048;-79
2023/07/23 09:44:17;;;;;;;2.05;0.98;;;24.10;85.00;;;;;;5051943;28;20025;-78
2023/07/23 09:46:46;;;;;;;2.38;1.10;;;24.10;85.30;;;;;;5027318;28;20033;-77
2023/07/23 09:49:13;;;;;;;2.08;1.30;;;24.10;85.80;;;;;;5052375;28;20060;-77
2023/07/23 09:51:39;;;;;;;2.45;1.30;;;24.00;85.40;;;;;;5033982;28;20033;-77
2023/07/23 09:54:05;;;;;;;4.40;1.50;;;24.10;85.60;;;;;;5052426;28;20428;-78
2023/07/23 09:56:33;;;;;;;2.08;1.30;;;24.10;85.70;;;;;;5033917;28;20067;-77
2023/07/23 09:58:59;;;;;;;1.40;1.00;;;24.10;85.40;;;;;;5052208;28;20017;-77
2023/07/23 10:01:25;;;;;;;2.75;1.05;;;24.20;85.30;;;;;;5033717;28;20087;-77
2023/07/23 10:03:53;;;;;;;1.75;0.98;;;24.30;85.10;;;;;;5033810;28;20083;-77
2023/07/23 10:06:23;;;;;;;3.25;1.10;;;24.30;85.10;;;;;;5034316;28;20131;-77
2023/07/23 10:08:50;;;;;;;4.57;1.50;;;24.30;84.90;;;;;;5051662;28;20100;-78
2023/07/23 10:11:18;;;;;;;1.27;1.10;;;24.40;84.00;;;;;;5034850;28;20393;-78
2023/07/23 10:13:44;;;;;;;2.95;1.33;;;24.40;84.40;;;;;;5034276;28;20052;-78
2023/07/23 10:16:24;;;;;;;3.25;1.30;;;24.50;84.20;;;;;;5034733;28;20087;-78
2023/07/23 10:18:51;;;;;;;2.00;1.15;;;24.60;84.60;;;;;;5033647;28;20040;-75
2023/07/23 10:21:18;;;;;;;3.65;1.40;;;24.70;84.20;;;;;;5052057;28;20061;-78
2023/07/23 10:23:57;;;;;;;2.90;1.20;;;24.70;83.40;;;;;;5034101;28;20029;-77
2023/07/23 10:26:25;;;;;;;3.70;1.58;;;24.80;83.70;;;;;;5052552;28;20021;-77
2023/07/23 10:29:11;;;;;;;1.67;1.30;;;24.90;84.00;;;;;;5051782;28;20013;-78
2023/07/23 10:31:38;;;;;;;2.05;1.20;;;25.00;83.20;;;;;;5044971;28;20502;-77
2023/07/23 10:34:27;;;;;;;3.22;1.30;;;24.90;83.00;;;;;;5033982;28;20029;-78
2023/07/23 10:37:12;;;;;;;4.68;1.40;;;25.10;82.10;;;;;;5044376;28;20037;-76
2023/07/23 10:39:48;;;;;;;2.08;1.40;;;25.30;82.30;;;;;;5044733;28;20091;-75
2023/07/23 10:42:36;;;;;;;2.88;1.40;;;25.40;82.20;;;;;;5051477;28;20036;-76
2023/07/23 10:45:20;;;;;;;2.35;1.65;;;25.30;81.00;;;;;;5047162;28;20071;-77
2023/07/23 10:47:56;;;;;;;3.83;1.70;;;25.30;81.80;;;;;;5029033;28;20029;-76
2023/07/23 10:50:24;;;;;;;1.95;1.60;;;25.40;81.30;;;;;;5052635;28;20018;-77
2023/07/23 10:52:52;;;;;;;2.22;1.50;;;25.40;81.20;;;;;;5051865;28;20488;-77
2023/07/23 10:55:32;;;;;;;4.88;1.52;;;25.60;80.80;;;;;;5034430;28;20615;-77
2023/07/23 10:58:02;;;;;;;2.58;1.60;;;25.70;80.10;;;;;;5052574;28;20536;-78
2023/07/23 11:00:30;;;;;;;2.05;1.50;;;25.70;80.10;;;;;;5033935;28;20116;-77
2023/07/23 11:02:56;;;;;;;1.75;1.42;;;25.70;80.60;;;;;;5034619;28;20032;-78
2023/07/23 11:05:22;;;;;;;2.67;1.65;;;25.70;80.50;;;;;;5038172;28;20085;-78
2023/07/23 11:08:26;;;;;;;2.20;1.60;;;25.70;81.30;;;;;;5037480;28;20056;-77
2023/07/23 11:11:03;;;;;;;2.80;1.58;;;25.70;80.10;;;;;;5028861;28;20091;-77
2023/07/23 11:13:35;;;;;;;1.45;1.23;;;25.70;80.40;;;;;;5055147;28;20044;-75
2023/07/23 11:16:02;;;;;;;3.60;1.50;;;25.70;79.40;;;;;;5056005;28;20087;-79
2023/07/23 11:18:34;;;;;;;1.90;1.52;;;25.70;79.40;;;;;;5038360;28;20021;-78
2023/07/23 11:21:04;;;;;;;3.92;1.40;;;25.70;78.70;;;;;;5038040;28;20044;-80
2023/07/23 11:23:31;;;;;;;1.75;1.40;;;25.70;79.30;;;;;;5055598;28;20025;-76
2023/07/23 11:25:58;;;;;;;2.03;1.45;;;25.70;79.50;;;;;;5037578;28;20033;-78
2023/07/23 11:28:24;;;;;;;2.05;1.38;;;25.80;80.10;;;;;;5056136;28;20087;-78
2023/07/23 11:30:53;;;;;;;2.88;1.45;;;25.80;79.50;;;;;;5037504;28;20489;-82
2023/07/23 11:33:21;;;;;;;2.38;1.70;;;25.90;78.70;;;;;;5038059;28;20035;-84
2023/07/23 11:35:48;;;;;;;1.70;1.30;;;26.10;78.70;;;;;;5037596;28;20493;-81
2023/07/23 11:38:13;;;;;;;5.30;1.38;;;26.20;77.80;;;;;;5038338;28;20021;-80
2023/07/23 11:40:40;;;;;;;1.65;1.38;;;26.30;77.40;;;;;;5036923;28;20025;-79
2023/07/23 11:43:07;;;;;;;2.70;1.38;;;26.40;77.00;;;;;;5055142;28;20021;-78
2023/07/23 11:45:42;;;;;;;5.88;1.52;;;26.50;76.10;;;;;;5054470;28;20021;-78
2023/07/23 11:48:15;;;;;;;4.85;1.40;;;26.50;74.30;;;;;;5055504;28;20028;-86
2023/07/23 11:50:41;;;;;;;3.03;1.10;;;26.50;72.70;;;;;;5036913;28;20040;-84
2023/07/23 11:53:07;;;;;;;6.25;1.38;;;26.60;72.70;;;;;;5037356;28;20016;-84
2023/07/23 11:55:32;;;;;;;1.42;1.33;;;26.50;71.70;;;;;;5036754;28;20474;-76
2023/07/23 11:57:59;;;;;;;1.92;1.50;;;26.50;72.00;;;;;;5054956;28;20052;-79
2023/07/23 12:00:31;;;;;;;2.10;1.52;;;26.60;71.50;;;;;;5037638;28;20497;-81
2023/07/23 12:02:58;;;;;;;5.18;1.23;;;26.70;71.30;;;;;;5053875;28;20060;-84
2023/07/23 12:05:24;;;;;;;1.73;1.13;;;26.90;71.40;;;;;;5054261;28;20049;-79
2023/07/23 12:07:54;;;;;;;2.58;1.45;;;27.00;71.30;;;;;;5036432;28;20111;-79
2023/07/23 12:10:20;;;;;;;1.88;1.30;;;27.10;70.40;;;;;;5054282;28;20108;-78
2023/07/23 12:12:49;;;;;;;2.70;1.55;;;27.20;69.50;;;;;;5052279;28;20056;-79
2023/07/23 12:15:16;;;;;;;1.63;1.30;;;27.20;68.30;;;;;;5036483;28;20397;-79
2023/07/23 12:17:42;;;;;;;2.00;1.30;;;27.20;69.30;;;;;;5036589;28;20100;-80
2023/07/23 12:20:11;;;;;;;1.88;1.27;;;27.20;68.90;;;;;;5037086;28;20051;-77
2023/07/23 12:22:53;;;;;;;1.75;1.35;;;27.50;68.20;;;;;;5035590;28;20535;-80
2023/07/23 12:25:18;;;;;;;2.13;1.20;;;27.90;67.60;;;;;;5037572;28;20482;-87
2023/07/23 12:27:44;;;;;;;2.63;1.20;;;28.10;65.90;;;;;;5054744;28;20075;-86
2023/07/23 12:30:10;;;;;;;2.35;1.33;;;28.20;64.40;;;;;;5055302;28;20465;-86
2023/07/23 12:32:36;;;;;;;2.53;1.55;;;28.10;64.60;;;;;;5035514;28;20029;-80
2023/07/23 12:35:01;;;;;;;1.40;1.15;;;28.10;64.60;;;;;;5037054;28;20103;-77
2023/07/23 12:37:27;;;;;;;3.28;1.30;;;28.10;64.70;;;;;;5055301;28;20029;-90
2023/07/23 12:39:55;;;;;;;2.97;1.40;;;28.10;63.80;;;;;;5037165;28;20057;-89
2023/07/23 12:42:21;;;;;;;3.13;1.10;;;28.10;63.00;;;;;;5036533;28;20036;-89
2023/07/23 12:44:46;;;;;;;1.90;1.30;;;28.20;63.80;;;;;;5054055;28;20166;-90
2023/07/23 12:47:12;;;;;;;2.10;1.30;;;28.10;63.60;;;;;;5037319;28;20033;-90
2023/07/23 12:49:38;;;;;;;1.85;1.50;;;28.00;63.80;;;;;;5036903;28;20025;-90